Time;durP1;ratioP1;P1;durP2;ratioP2;P2;SDS_P1;SDS_P2;PMS_P1;PMS_P2;Temp;Humidity;BMP_temperature;BMP_pressure;BME280_temperature;BME280_humidity;BME280_pressure;Samples;Min_cycle;Max_cycle;Signal;HPM_P1;HPM_P2
2022/04/12 00:01:47;;;;;;;6.30;2.92;;;;;;;5.40;89.61;98066.31;4966298;29;20043;-90
2022/04/12 00:04:12;;;;;;;6.10;2.78;;;;;;;5.33;89.09;98078.56;4966241;29;20042;-90
2022/04/12 00:06:37;;;;;;;5.38;2.70;;;;;;;5.42;88.93;98075.00;4966585;29;20074;-90
2022/04/12 00:09:04;;;;;;;6.70;2.70;;;;;;;5.36;89.14;98080.28;4966185;29;20023;-90
2022/04/12 00:11:29;;;;;;;4.32;2.33;;;;;;;5.32;89.57;98074.19;4966190;29;20127;-90
2022/04/12 00:13:55;;;;;;;10.90;3.67;;;;;;;5.35;89.38;98078.53;4966139;29;20051;-90
2022/04/12 00:16:21;;;;;;;4.97;2.60;;;;;;;5.32;89.37;98073.34;4966139;29;20027;-90
2022/04/12 00:19:05;;;;;;;6.82;2.90;;;;;;;5.24;89.52;98069.91;4966001;29;20019;-90
2022/04/12 00:21:35;;;;;;;4.45;2.22;;;;;;;5.29;89.53;98070.75;4966008;29;20091;-90
2022/04/12 00:24:06;;;;;;;7.45;2.55;;;;;;;5.37;89.15;98074.16;4965654;29;20220;-90
2022/04/12 00:26:32;;;;;;;4.85;2.50;;;;;;;5.21;89.30;98072.53;4965921;29;20050;-90
2022/04/12 00:28:58;;;;;;;6.50;2.60;;;;;;;5.18;89.41;98064.75;4965831;29;20094;-90
2022/04/12 00:31:23;;;;;;;5.70;2.83;;;;;;;5.13;89.84;98056.09;4965917;29;20211;-90
2022/04/12 00:33:49;;;;;;;7.07;2.78;;;;;;;5.23;89.64;98053.41;4965798;28;20051;-90
2022/04/12 00:36:14;;;;;;;6.55;2.75;;;;;;;5.30;89.48;98057.72;4965703;29;20030;-90
2022/04/12 00:38:40;;;;;;;4.60;2.60;;;;;;;5.17;89.94;98058.69;4966865;29;20030;-90
2022/04/12 00:41:08;;;;;;;5.38;2.95;;;;;;;5.20;90.11;98058.66;4965723;29;20023;-90
2022/04/12 00:43:35;;;;;;;8.30;3.10;;;;;;;5.32;89.55;98063.75;4965730;29;20015;-90
2022/04/12 00:46:01;;;;;;;6.07;3.05;;;;;;;5.18;89.64;98051.69;4966729;29;20315;-90
2022/04/12 00:48:28;;;;;;;5.30;2.33;;;;;;;5.13;90.58;98063.94;4965657;29;20023;-90
2022/04/12 00:50:54;;;;;;;7.28;2.72;;;;;;;5.17;90.25;98052.59;4965515;28;20023;-90
2022/04/12 00:53:20;;;;;;;3.45;2.22;;;;;;;5.15;90.33;98059.53;4965463;29;20098;-90
2022/04/12 00:55:45;;;;;;;7.30;3.17;;;;;;;5.06;90.48;98054.41;4965459;28;20066;-90
2022/04/12 00:58:11;;;;;;;5.13;3.03;;;;;;;5.11;91.08;98052.63;4965309;29;20046;-90
2022/04/12 01:00:37;;;;;;;3.95;2.55;;;;;;;5.09;90.71;98043.97;4964927;28;20146;-90
2022/04/12 01:03:03;;;;;;;7.38;3.20;;;;;;;5.16;89.99;98050.88;4965369;28;20023;-90
2022/04/12 01:05:29;;;;;;;6.03;2.65;;;;;;;5.08;90.64;98045.69;4965175;29;20345;-90
2022/04/12 01:07:55;;;;;;;7.28;3.03;;;;;;;5.05;90.69;98047.44;4965337;29;20027;-90
2022/04/12 01:10:22;;;;;;;3.42;2.28;;;;;;;5.04;90.92;98043.13;4965182;29;20019;-90
2022/04/12 01:12:52;;;;;;;6.93;2.67;;;;;;;5.09;90.92;98043.97;4965119;29;20019;-90
2022/04/12 01:15:20;;;;;;;4.70;2.50;;;;;;;5.01;90.87;98035.31;4965220;28;20098;-90
2022/04/12 01:17:46;;;;;;;8.48;2.50;;;;;;;5.03;90.85;98038.78;4965502;29;20037;-90
2022/04/12 01:20:14;;;;;;;7.43;2.40;;;;;;;4.94;91.31;98028.41;4965169;29;20019;-90
2022/04/12 01:22:49;;;;;;;4.72;2.65;;;;;;;5.04;91.44;98035.31;4965193;29;20019;-90
2022/04/12 01:25:15;;;;;;;2.95;1.90;;;;;;;4.93;90.97;98032.75;4965273;29;20031;-90
2022/04/12 01:27:41;;;;;;;6.60;2.63;;;;;;;4.90;90.65;98026.72;4964998;29;20034;-90
2022/04/12 01:30:07;;;;;;;3.90;1.85;;;;;;;4.86;91.42;98025.88;4965031;29;20023;-90
2022/04/12 01:32:32;;;;;;;4.47;2.20;;;;;;;4.80;91.71;98020.69;4966108;29;20098;-90
2022/04/12 01:34:57;;;;;;;3.65;2.33;;;;;;;4.83;92.05;98030.22;4964922;29;20028;-90
2022/04/12 01:37:23;;;;;;;2.60;1.92;;;;;;;4.87;92.37;98034.56;4966078;29;20214;-90
2022/04/12 01:39:48;;;;;;;5.57;2.25;;;;;;;4.90;92.04;98032.78;4964994;29;20097;-90
2022/04/12 01:42:14;;;;;;;3.38;1.67;;;;;;;4.93;91.73;98026.69;4964998;29;20373;-90
2022/04/12 01:44:39;;;;;;;2.85;1.98;;;;;;;4.99;91.54;98031.84;4964863;29;20026;-90
2022/04/12 01:47:05;;;;;;;5.63;2.38;;;;;;;5.02;91.02;98029.22;4965219;29;20219;-90
2022/04/12 01:49:30;;;;;;;3.90;2.22;;;;;;;4.98;90.91;98030.13;4964922;29;20027;-90
2022/04/12 01:52:01;;;;;;;7.80;2.00;;;;;;;4.86;90.81;98024.97;4964839;29;20019;-90
2022/04/12 01:54:26;;;;;;;3.63;1.80;;;;;;;4.81;90.96;98030.22;4964602;29;20031;-90
2022/04/12 01:56:52;;;;;;;5.95;2.50;;;;;;;4.86;91.46;98025.88;4964701;29;20271;-90
2022/04/12 01:59:17;;;;;;;3.45;1.77;;;;;;;4.89;91.43;98014.53;4964715;29;20067;-90
2022/04/12 02:01:42;;;;;;;3.17;2.00;;;;;;;4.89;91.40;98010.19;4964742;29;20023;-90
2022/04/12 02:04:08;;;;;;;3.38;1.80;;;;;;;4.94;91.04;98020.59;4964698;29;20071;-90
2022/04/12 02:06:33;;;;;;;2.10;1.63;;;;;;;4.78;90.82;98017.22;4964661;29;20027;-90
2022/04/12 02:08:59;;;;;;;2.72;1.60;;;;;;;4.71;91.63;98014.69;4965679;29;20023;-90
2022/04/12 02:11:24;;;;;;;2.50;1.67;;;;;;;4.71;92.36;98009.47;4965675;28;20078;-90
2022/04/12 02:13:49;;;;;;;3.38;1.92;;;;;;;4.73;91.71;98018.13;4967917;29;20098;-90
2022/04/12 02:16:15;;;;;;;2.80;1.85;;;;;;;4.70;92.24;98018.13;4969382;29;20304;-90
2022/04/12 02:18:40;;;;;;;12.27;2.00;;;;;;;4.70;92.19;98023.34;4968518;29;20043;-90
2022/04/12 02:21:06;;;;;;;4.55;2.17;;;;;;;4.59;91.62;98014.75;4968043;29;20053;-90
2022/04/12 02:23:31;;;;;;;7.45;2.72;;;;;;;4.58;92.77;98013.03;4967929;29;20110;-90
2022/04/12 02:25:57;;;;;;;5.38;2.90;;;;;;;4.58;92.22;98013.88;4968048;29;20027;-90
2022/04/12 02:28:22;;;;;;;11.20;3.83;;;;;;;4.58;92.96;98013.03;4969208;29;20023;-90
2022/04/12 02:30:47;;;;;;;6.07;2.92;;;;;;;4.61;92.49;98018.19;4967978;29;20030;-90
2022/04/12 02:33:13;;;;;;;5.50;3.13;;;;;;;4.68;92.32;98014.69;4967845;29;20023;-90
2022/04/12 02:35:38;;;;;;;4.10;2.30;;;;;;;4.53;92.49;97999.16;4967984;29;20066;-90
2022/04/12 02:38:04;;;;;;;13.48;3.65;;;;;;;4.58;92.24;98007.81;4967993;29;20338;-90
2022/04/12 02:40:29;;;;;;;9.70;4.32;;;;;;;4.66;92.40;98011.22;4967770;28;20034;-90
2022/04/12 02:42:56;;;;;;;4.05;2.60;;;;;;;4.60;92.26;98011.25;4967829;29;20070;-91
2022/04/12 02:45:21;;;;;;;8.43;3.25;;;;;;;4.46;92.49;98006.13;4968876;29;20350;-90
2022/04/12 02:47:47;;;;;;;12.60;3.33;;;;;;;4.53;92.71;98012.16;4967728;29;20106;-90
2022/04/12 02:50:12;;;;;;;4.53;2.33;;;;;;;4.53;92.38;98014.78;4967717;29;20023;-90
2022/04/12 02:52:38;;;;;;;7.78;3.05;;;;;;;4.39;92.55;98012.22;4967789;29;20078;-90
2022/04/12 02:55:04;;;;;;;9.35;3.70;;;;;;;4.41;93.06;98019.19;4967465;29;20074;-90
2022/04/12 02:57:30;;;;;;;4.57;2.92;;;;;;;4.35;93.49;98016.63;4983743;28;20023;-90
2022/04/12 02:59:55;;;;;;;6.15;2.70;;;;;;;4.38;93.49;98013.13;4967698;29;20030;-90
2022/04/12 03:02:20;;;;;;;12.02;2.53;;;;;;;4.29;93.52;98001.00;4967394;29;20051;-90
2022/04/12 03:04:46;;;;;;;3.70;2.47;;;;;;;4.38;94.08;98000.97;4967341;29;20019;-90
2022/04/12 03:07:11;;;;;;;4.28;2.47;;;;;;;4.35;93.54;97998.38;4967281;29;20118;-90
2022/04/12 03:09:37;;;;;;;4.35;2.50;;;;;;;4.26;93.69;98011.44;4967408;29;20043;-90
2022/04/12 03:12:02;;;;;;;5.85;3.17;;;;;;;4.32;94.02;98011.41;4967686;29;20019;-90
2022/04/12 03:14:28;;;;;;;9.68;2.35;;;;;;;4.39;94.53;98009.63;4967078;29;20027;-90
2022/04/12 03:16:53;;;;;;;5.80;2.88;;;;;;;4.33;93.88;98007.94;4967123;29;20019;-90
2022/04/12 03:19:19;;;;;;;3.53;2.17;;;;;;;4.35;94.53;98001.00;4967168;29;20023;-90
2022/04/12 03:21:44;;;;;;;4.97;2.50;;;;;;;4.50;94.48;98006.09;4967395;29;20074;-90
2022/04/12 03:24:10;;;;;;;6.30;2.25;;;;;;;4.50;93.73;98003.50;4966784;28;20047;-90
2022/04/12 03:26:36;;;;;;;4.75;2.45;;;;;;;4.51;93.62;98006.97;4967011;29;20031;-90
2022/04/12 03:29:02;;;;;;;5.88;2.13;;;;;;;4.49;94.16;98006.97;4967089;29;20082;-90
2022/04/12 03:31:27;;;;;;;6.50;2.60;;;;;;;4.59;93.77;98009.53;4966869;29;20023;-90
2022/04/12 03:33:53;;;;;;;4.00;2.17;;;;;;;4.65;93.58;97999.06;4966883;29;20094;-90
2022/04/12 03:36:18;;;;;;;3.17;2.00;;;;;;;4.63;93.30;97990.38;4966829;29;20023;-90
2022/04/12 03:38:49;;;;;;;5.03;2.70;;;;;;;4.53;94.61;97990.44;4966756;29;20414;-90
2022/04/12 03:41:21;;;;;;;5.20;2.20;;;;;;;4.68;94.41;97993.84;4967917;29;20030;-90
2022/04/12 03:43:47;;;;;;;3.97;2.30;;;;;;;4.76;94.23;97992.03;4967739;29;20038;-90
2022/04/12 03:46:12;;;;;;;5.82;2.47;;;;;;;4.76;93.80;97992.03;4966712;29;20026;-90
2022/04/12 03:48:38;;;;;;;4.55;2.47;;;;;;;4.72;94.56;97990.34;4966579;29;20034;-90
2022/04/12 03:51:03;;;;;;;5.10;2.22;;;;;;;4.83;93.57;97988.50;4966436;29;20030;-90
2022/04/12 03:53:29;;;;;;;4.63;2.40;;;;;;;4.85;93.91;97991.97;4966477;29;20019;-90
2022/04/12 03:55:55;;;;;;;7.72;2.42;;;;;;;4.77;94.10;97991.19;4967573;29;20070;-90
2022/04/12 03:58:22;;;;;;;3.67;2.38;;;;;;;4.82;94.10;97989.41;4966324;29;20023;-90
2022/04/12 04:00:48;;;;;;;14.40;3.42;;;;;;;4.87;93.54;97993.69;4966418;28;20323;-90
2022/04/12 04:03:14;;;;;;;5.32;2.80;;;;;;;4.91;93.69;97994.53;4966397;29;20196;-90
2022/04/12 04:05:40;;;;;;;4.43;2.22;;;;;;;4.88;93.33;97994.56;4966161;29;20019;-90
2022/04/12 04:08:06;;;;;;;7.35;2.53;;;;;;;4.91;93.46;97997.16;4966237;29;20255;-90
2022/04/12 04:10:31;;;;;;;6.72;3.03;;;;;;;4.91;93.52;97998.03;4966165;29;20023;-90
2022/04/12 04:12:56;;;;;;;3.85;2.40;;;;;;;4.94;93.69;98002.34;4966011;29;20027;-90
2022/04/12 04:15:22;;;;;;;7.43;2.47;;;;;;;4.95;93.56;97993.63;4966167;29;20023;-90
2022/04/12 04:17:48;;;;;;;4.25;2.42;;;;;;;5.01;92.95;97998.81;4966127;29;20027;-89
2022/04/12 04:20:15;;;;;;;5.97;3.00;;;;;;;5.06;93.38;97994.44;4966050;29;20398;-90
2022/04/12 04:22:41;;;;;;;10.27;3.00;;;;;;;5.06;92.89;97997.03;4965570;29;20023;-90
2022/04/12 04:25:08;;;;;;;13.05;2.78;;;;;;;5.10;93.38;97997.00;4966031;29;20023;-90
2022/04/12 04:27:34;;;;;;;4.85;2.60;;;;;;;5.12;92.86;98002.22;4965810;29;20050;-90
2022/04/12 04:30:00;;;;;;;5.20;2.35;;;;;;;5.13;92.86;98003.94;4965839;29;20058;-90
2022/04/12 04:32:26;;;;;;;5.15;2.63;;;;;;;5.20;92.33;98003.88;4966845;29;20090;-90
2022/04/12 04:34:51;;;;;;;7.75;2.35;;;;;;;5.07;92.65;97998.75;4965479;28;20143;-90
2022/04/12 04:37:16;;;;;;;4.03;2.38;;;;;;;5.20;92.33;97990.84;4965971;29;20027;-90
2022/04/12 04:39:42;;;;;;;3.78;2.25;;;;;;;5.07;93.02;97988.34;4966783;29;20026;-90
2022/04/12 04:42:07;;;;;;;2.90;1.95;;;;;;;5.09;93.15;97997.03;4965641;29;20031;-90
2022/04/12 04:44:33;;;;;;;3.55;2.10;;;;;;;5.07;92.99;97993.56;4966699;29;20019;-90
2022/04/12 04:46:58;;;;;;;4.03;2.10;;;;;;;5.03;93.46;97997.91;4965649;29;20070;-90
2022/04/12 04:49:24;;;;;;;7.13;2.65;;;;;;;5.08;93.10;98000.50;4965518;29;20065;-90
2022/04/12 04:51:49;;;;;;;7.00;2.88;;;;;;;5.06;92.90;97991.84;4965365;29;20038;-90
2022/04/12 04:54:15;;;;;;;3.45;2.00;;;;;;;5.28;92.75;98001.22;4966440;29;20019;-90
2022/04/12 04:56:40;;;;;;;7.07;2.60;;;;;;;5.02;93.40;97993.59;4966541;29;20069;-90
2022/04/12 04:59:06;;;;;;;5.40;2.53;;;;;;;5.10;93.53;98006.56;4965256;29;20066;-90
2022/04/12 05:01:32;;;;;;;7.97;2.92;;;;;;;5.12;93.36;98002.22;4965274;29;20097;-90
2022/04/12 05:03:57;;;;;;;3.05;1.98;;;;;;;5.18;94.01;98004.75;4965367;29;20015;-90
2022/04/12 05:06:22;;;;;;;3.22;1.60;;;;;;;5.24;93.55;98004.69;4965493;29;20026;-90
2022/04/12 05:08:48;;;;;;;3.95;1.95;;;;;;;5.37;93.48;98011.53;4965200;29;20098;-90
2022/04/12 05:11:13;;;;;;;3.00;2.08;;;;;;;5.43;92.60;98007.16;4965199;29;20019;-90
2022/04/12 05:13:39;;;;;;;7.45;2.45;;;;;;;5.33;92.94;98002.00;4965062;29;20050;-90
2022/04/12 05:16:04;;;;;;;5.32;2.22;;;;;;;5.33;94.20;98012.44;4965162;29;20026;-90
2022/04/12 05:18:30;;;;;;;4.93;2.45;;;;;;;5.48;92.61;98007.09;4965489;28;20019;-90
2022/04/12 05:20:56;;;;;;;3.13;2.15;;;;;;;5.70;92.09;98013.84;4965050;29;20041;-90
2022/04/12 05:23:22;;;;;;;3.05;1.80;;;;;;;5.65;91.76;98005.19;4964806;29;20118;-90
2022/04/12 05:25:47;;;;;;;4.82;2.70;;;;;;;5.76;92.00;98009.41;4965078;29;20211;-90
2022/04/12 05:28:13;;;;;;;3.72;2.10;;;;;;;5.96;91.64;98007.50;4965040;28;20077;-90
2022/04/12 05:30:38;;;;;;;2.92;1.80;;;;;;;6.28;90.23;98020.19;4964937;29;20042;-90
2022/04/12 05:33:03;;;;;;;3.33;2.00;;;;;;;6.68;88.60;98029.25;4964914;29;20054;-90
2022/04/12 05:35:29;;;;;;;5.68;1.90;;;;;;;6.92;86.62;98021.03;4966001;29;20057;-90
2022/04/12 05:37:54;;;;;;;4.63;1.98;;;;;;;6.92;86.86;98014.94;4964897;28;20219;-90
2022/04/12 05:40:22;;;;;;;4.75;2.40;;;;;;;6.77;87.76;98015.19;4966155;29;20030;-90
2022/04/12 05:42:48;;;;;;;4.50;2.25;;;;;;;6.79;87.79;98016.88;4964864;29;20102;-90
2022/04/12 05:45:15;;;;;;;4.72;2.65;;;;;;;6.86;86.37;98015.88;4964746;29;20026;-90
2022/04/12 05:47:45;;;;;;;5.60;2.78;;;;;;;7.34;85.95;98025.59;4968313;28;20023;-90
2022/04/12 05:50:12;;;;;;;3.40;2.15;;;;;;;7.92;84.86;98026.34;4968759;29;20042;-90
2022/04/12 05:52:38;;;;;;;2.67;1.90;;;;;;;8.44;84.73;98031.44;4968633;29;20066;-90
2022/04/12 05:55:09;;;;;;;3.75;2.00;;;;;;;8.90;84.10;98026.06;4968539;29;20031;-90
2022/04/12 05:57:48;;;;;;;2.42;1.73;;;;;;;8.92;83.62;98035.63;4968594;28;20319;-90
2022/04/12 06:00:14;;;;;;;3.58;2.05;;;;;;;9.34;80.93;98029.41;4968547;29;20019;-90
2022/04/12 06:02:39;;;;;;;2.83;1.80;;;;;;;9.51;79.72;98026.34;4968444;29;20050;-90
2022/04/12 06:05:05;;;;;;;6.25;2.28;;;;;;;9.47;78.08;98032.59;4968479;28;20015;-90
2022/04/12 06:07:32;;;;;;;5.93;3.63;;;;;;;10.18;77.01;98034.25;4968278;29;20318;-91
2022/04/12 06:09:59;;;;;;;5.32;2.60;;;;;;;10.72;76.25;98038.81;4968387;29;20238;-90
2022/04/12 06:12:25;;;;;;;6.32;3.47;;;;;;;10.93;74.67;98043.47;4968345;29;20066;-90
2022/04/12 06:14:50;;;;;;;6.93;3.42;;;;;;;10.60;74.58;98040.94;4968610;29;20019;-90
2022/04/12 06:17:19;;;;;;;5.97;3.10;;;;;;;10.49;76.24;98037.75;4968260;29;20026;-91
2022/04/12 06:19:44;;;;;;;5.35;2.83;;;;;;;10.99;74.97;98047.66;4968242;29;20326;-90
2022/04/12 06:22:10;;;;;;;8.25;2.88;;;;;;;11.30;74.47;98052.84;4968625;29;20050;-90
2022/04/12 06:24:35;;;;;;;4.15;2.70;;;;;;;11.60;74.66;98050.09;4968066;28;20039;-90
2022/04/12 06:27:01;;;;;;;7.72;3.42;;;;;;;11.93;74.56;98046.34;4968113;29;20027;-90
2022/04/12 06:29:27;;;;;;;4.75;1.90;;;;;;;12.43;70.74;98055.13;4968027;29;20027;-91
2022/04/12 06:31:52;;;;;;;4.97;2.65;;;;;;;12.68;72.01;98059.50;4967950;29;20019;-90
2022/04/12 06:34:17;;;;;;;5.53;3.08;;;;;;;12.76;71.93;98060.06;4967786;29;20323;-91
2022/04/12 06:36:43;;;;;;;6.90;3.10;;;;;;;12.86;72.97;98063.22;4967902;29;20110;-90
2022/04/12 06:39:08;;;;;;;4.85;2.88;;;;;;;13.16;72.56;98071.81;4967822;29;20023;-91
2022/04/12 06:41:34;;;;;;;9.98;3.40;;;;;;;13.15;70.51;98068.31;4968889;29;20027;-90
2022/04/12 06:43:59;;;;;;;5.95;2.60;;;;;;;13.44;71.34;98070.66;4967839;29;20058;-90
2022/04/12 06:46:25;;;;;;;5.80;3.53;;;;;;;13.55;70.28;98071.13;4967732;29;20038;-91
2022/04/12 06:48:50;;;;;;;6.75;3.63;;;;;;;13.83;68.39;98069.03;4983743;28;20023;-91
2022/04/12 06:51:15;;;;;;;9.73;3.97;;;;;;;13.75;69.38;98065.00;4967664;29;20019;-90
2022/04/12 06:53:41;;;;;;;9.73;4.05;;;;;;;13.90;69.85;98062.59;4967829;29;20023;-91
2022/04/12 06:56:08;;;;;;;7.68;3.90;;;;;;;14.03;69.69;98068.22;4968874;29;20019;-91
2022/04/12 06:58:33;;;;;;;8.80;3.80;;;;;;;14.35;68.79;98073.91;4966916;28;20041;-90
2022/04/12 07:00:59;;;;;;;6.18;3.00;;;;;;;14.69;68.53;98068.00;4968503;29;20050;-91
2022/04/12 07:03:24;;;;;;;6.75;3.20;;;;;;;14.49;68.87;98057.44;4967701;29;20023;-91
2022/04/12 07:05:55;;;;;;;5.88;2.15;;;;;;;15.02;62.75;98066.47;4968398;29;20046;-91
2022/04/12 07:08:22;;;;;;;4.40;2.70;;;;;;;15.96;62.83;98069.00;4967336;29;20041;-91
2022/04/12 07:10:47;;;;;;;7.30;3.67;;;;;;;15.65;64.11;98063.47;4967330;29;20058;-91
2022/04/12 07:13:13;;;;;;;5.85;2.70;;;;;;;15.99;57.35;98052.94;4967112;29;20027;-91
2022/04/12 07:15:39;;;;;;;5.57;2.67;;;;;;;15.85;54.14;98044.78;4967180;29;20023;-91
2022/04/12 07:18:04;;;;;;;5.07;2.30;;;;;;;16.35;55.59;98060.81;4967074;29;20019;-91
2022/04/12 07:20:30;;;;;;;4.03;2.20;;;;;;;16.44;50.55;98055.94;4967364;29;20019;-91
2022/04/12 07:22:55;;;;;;;3.65;1.83;;;;;;;17.44;48.09;98063.81;4966818;29;20042;-91
2022/04/12 07:25:21;;;;;;;5.53;3.15;;;;;;;18.12;50.03;98074.03;4967302;29;20062;-91
2022/04/12 07:27:46;;;;;;;4.50;2.10;;;;;;;18.26;45.49;98068.78;4966969;29;20030;-91
2022/04/12 07:30:12;;;;;;;4.80;2.15;;;;;;;18.79;43.78;98074.44;4966762;29;20019;-91
2022/04/12 07:32:38;;;;;;;6.40;2.35;;;;;;;18.88;42.37;98069.41;4968197;29;20379;-91
2022/04/12 07:35:05;;;;;;;8.88;2.20;;;;;;;18.71;43.54;98066.94;4966727;29;20027;-91
2022/04/12 07:37:31;;;;;;;2.70;1.50;;;;;;;18.15;41.55;98055.22;4966742;29;20130;-91
2022/04/12 07:39:57;;;;;;;2.17;1.30;;;;;;;18.00;42.85;98061.47;4966818;29;20027;-91
2022/04/12 07:42:23;;;;;;;3.13;1.63;;;;;;;17.73;42.31;98058.56;4967003;29;20349;-91
2022/04/12 07:44:49;;;;;;;4.10;1.27;;;;;;;17.82;43.18;98057.19;4967041;29;20098;-91
2022/04/12 07:47:14;;;;;;;2.13;1.30;;;;;;;17.60;42.28;98046.91;4966635;29;20085;-91
2022/04/12 07:49:41;;;;;;;2.97;1.40;;;;;;;17.80;42.38;98051.09;4966843;28;20019;-91
2022/04/12 07:52:06;;;;;;;3.92;1.48;;;;;;;18.06;43.65;98050.44;4966481;29;20027;-91
2022/04/12 07:54:32;;;;;;;3.22;1.00;;;;;;;17.72;41.87;98048.03;4966398;29;20047;-91
2022/04/12 07:56:57;;;;;;;2.33;1.15;;;;;;;17.88;42.61;98052.34;4966418;29;20019;-91
2022/04/12 07:59:23;;;;;;;2.10;1.02;;;;;;;17.77;42.20;98052.13;4966397;29;20199;-91
2022/04/12 08:01:48;;;;;;;2.47;1.35;;;;;;;17.76;42.68;98041.56;4966708;29;20250;-91
2022/04/12 08:04:14;;;;;;;3.60;1.17;;;;;;;17.65;42.93;98034.19;4966574;29;20019;-91
2022/04/12 08:06:39;;;;;;;2.17;1.17;;;;;;;17.86;42.17;98043.63;4966211;29;20115;-91
2022/04/12 08:09:05;;;;;;;1.80;1.13;;;;;;;17.35;41.98;98041.22;4966166;28;20030;-91
2022/04/12 08:11:31;;;;;;;5.22;1.30;;;;;;;17.57;43.54;98040.91;4965918;29;20210;-91
2022/04/12 08:13:57;;;;;;;2.78;1.27;;;;;;;17.82;42.26;98046.53;4966326;29;20027;-91
2022/04/12 08:16:23;;;;;;;2.28;1.20;;;;;;;17.93;43.72;98049.44;4966014;29;20027;-91
2022/04/12 08:18:48;;;;;;;2.72;1.45;;;;;;;17.98;42.10;98050.91;4966060;29;20027;-91
2022/04/12 08:21:14;;;;;;;1.55;1.20;;;;;;;18.00;41.89;98040.16;4965881;29;20047;-91
2022/04/12 08:23:39;;;;;;;1.67;1.10;;;;;;;18.56;41.38;98056.31;4965844;29;20254;-91
2022/04/12 08:26:05;;;;;;;2.33;1.10;;;;;;;18.84;40.79;98051.03;4965981;29;20242;-91
2022/04/12 08:28:30;;;;;;;6.57;1.20;;;;;;;18.85;41.99;98042.94;4966131;29;20310;-91
2022/04/12 08:30:56;;;;;;;1.98;1.05;;;;;;;19.68;33.02;98045.63;4965815;28;20019;-91
2022/04/12 08:33:21;;;;;;;2.97;1.25;;;;;;;19.42;40.68;98051.78;4966103;29;20031;-91
2022/04/12 08:35:47;;;;;;;4.10;1.30;;;;;;;19.89;40.73;98060.25;4965750;29;20094;-91
2022/04/12 08:38:12;;;;;;;1.95;0.90;;;;;;;19.44;30.58;98057.91;4965690;29;20377;-91
2022/04/12 08:40:40;;;;;;;2.38;1.10;;;;;;;19.75;39.31;98056.78;4965578;29;20023;-91
2022/04/12 08:43:07;;;;;;;2.97;1.10;;;;;;;19.95;39.52;98056.31;4965603;29;20026;-91
2022/04/12 08:45:35;;;;;;;3.00;1.20;;;;;;;20.30;37.07;98050.38;4965756;29;20082;-91
2022/04/12 08:48:02;;;;;;;2.72;1.02;;;;;;;20.30;37.40;98049.53;4965880;29;20374;-91
2022/04/12 08:50:28;;;;;;;1.48;0.93;;;;;;;21.18;38.12;98061.19;4965778;29;20023;-91
2022/04/12 08:52:54;;;;;;;2.15;1.23;;;;;;;21.10;35.15;98048.34;4965693;29;20023;-91
2022/04/12 08:55:20;;;;;;;2.47;1.00;;;;;;;21.65;35.42;98060.44;4965485;29;20031;-91
2022/04/12 08:57:46;;;;;;;1.70;1.10;;;;;;;21.72;34.48;98051.88;4965675;29;20023;-91
2022/04/12 09:00:12;;;;;;;1.70;0.95;;;;;;;21.86;35.07;98050.88;4965748;29;20094;-91
2022/04/12 09:02:39;;;;;;;1.63;1.08;;;;;;;21.40;35.44;98047.13;4965529;29;20019;-91
2022/04/12 09:05:08;;;;;;;1.75;1.02;;;;;;;21.99;35.35;98043.66;4965276;29;20087;-91
2022/04/12 09:07:44;;;;;;;1.88;1.08;;;;;;;22.64;32.88;98061.84;4965262;29;20019;-91
2022/04/12 09:10:09;;;;;;;2.58;1.10;;;;;;;22.67;33.00;98069.69;4965553;29;20192;-91
2022/04/12 09:12:35;;;;;;;1.42;0.80;;;;;;;22.08;34.50;98051.00;4965149;29;20042;-92
2022/04/12 09:15:01;;;;;;;1.58;0.73;;;;;;;23.18;30.81;98057.56;4965098;28;20025;-92
2022/04/12 09:17:39;;;;;;;1.90;0.93;;;;;;;23.39;32.42;98054.19;4965146;29;20023;-92
2022/04/12 09:20:13;;;;;;;2.25;1.10;;;;;;;23.47;31.67;98059.81;4965159;29;20019;-92
2022/04/12 09:22:38;;;;;;;1.25;0.77;;;;;;;22.96;33.91;98054.00;4964980;29;20034;-91
2022/04/12 09:25:05;;;;;;;1.15;0.85;;;;;;;23.38;33.46;98064.06;4964940;29;20238;-91
2022/04/12 09:27:38;;;;;;;2.42;1.08;;;;;;;23.30;33.21;98058.44;4964932;29;20037;-91
2022/04/12 09:32:51;;;;;;;3.78;1.33;;;;;;;23.75;30.83;98048.50;4965095;29;20063;-92
2022/04/12 09:35:32;;;;;;;2.70;1.15;;;;;;;24.06;32.86;98056.66;4964841;28;20075;-91
2022/04/12 09:38:29;;;;;;;2.80;1.00;;;;;;;23.14;32.08;98039.13;4965175;28;20038;-92
2022/04/12 09:41:16;;;;;;;1.95;1.00;;;;;;;23.70;31.08;98040.84;4965204;28;20061;-91
2022/04/12 09:44:16;;;;;;;1.48;1.00;;;;;;;24.09;32.38;98042.97;4964733;29;20023;-92
2022/04/12 09:46:57;;;;;;;1.92;1.05;;;;;;;24.40;30.73;98031.38;4964692;28;20034;-92
2022/04/12 09:49:28;;;;;;;2.53;1.23;;;;;;;23.78;31.25;98011.50;4965167;29;20050;-91
2022/04/12 09:51:54;;;;;;;2.65;1.10;;;;;;;24.14;30.24;98027.28;4964721;28;20030;-92
2022/04/12 09:54:45;;;;;;;2.47;0.80;;;;;;;23.81;31.80;98016.63;4965122;29;20102;-91
2022/04/12 09:57:11;;;;;;;2.20;0.88;;;;;;;23.55;32.93;98003.59;4964635;29;20030;-92
2022/04/12 09:59:39;;;;;;;1.90;1.00;;;;;;;24.10;32.10;98001.66;4964716;29;20046;-92
2022/04/12 10:02:05;;;;;;;3.05;0.98;;;;;;;24.36;31.32;98007.53;4965044;29;20274;-92
2022/04/12 10:04:33;;;;;;;0.75;0.70;;;;;;;25.35;31.83;98008.75;4964861;29;20050;-92
2022/04/12 10:07:00;;;;;;;1.50;0.98;;;;;;;25.22;31.83;97993.63;4964574;29;20102;-92
2022/04/12 10:09:27;;;;;;;1.73;0.73;;;;;;;25.21;31.49;97994.63;4964891;29;20051;-92
2022/04/12 10:11:53;;;;;;;2.92;1.10;;;;;;;25.30;30.07;97996.50;4964638;29;20340;-92
2022/04/12 10:14:19;;;;;;;3.05;1.23;;;;;;;24.89;31.98;97982.28;4964865;29;20020;-92
2022/04/12 10:16:46;;;;;;;1.40;0.88;;;;;;;25.18;31.08;97992.19;4964879;29;20195;-92
2022/04/12 10:19:11;;;;;;;2.67;0.82;;;;;;;25.09;31.74;97990.31;4964540;29;20019;-92
2022/04/12 10:21:37;;;;;;;0.80;0.80;;;;;;;24.71;32.41;97987.41;4964830;29;20258;-92
2022/04/12 10:24:18;;;;;;;1.52;0.93;;;;;;;25.53;33.10;97986.38;4964388;29;20354;-92
2022/04/12 10:26:54;;;;;;;1.70;1.08;;;;;;;25.46;33.19;97979.03;4964707;29;20023;-92
2022/04/12 10:29:32;;;;;;;2.35;0.82;;;;;;;25.35;32.39;97965.63;4964419;28;20196;-92
2022/04/12 10:32:00;;;;;;;1.52;1.08;;;;;;;25.71;32.77;97973.09;4964708;28;20024;-91
2022/04/12 10:34:25;;;;;;;3.72;2.17;;;;;;;25.43;31.71;97965.81;4967341;29;20027;-92
2022/04/12 10:37:30;;;;;;;1.20;0.85;;;;;;;25.07;32.07;97962.69;4967935;28;20029;-91
2022/04/12 10:40:04;;;;;;;1.73;0.98;;;;;;;25.27;33.44;97961.75;4968279;29;20366;-92
2022/04/12 10:42:58;;;;;;;1.05;0.70;;;;;;;24.63;31.50;97960.28;4967795;29;20023;-92
2022/04/12 10:45:46;;;;;;;2.17;1.02;;;;;;;25.55;29.34;97975.47;4968084;28;20034;-92
2022/04/12 10:48:40;;;;;;;2.28;0.70;;;;;;;24.97;33.95;97951.00;4968077;29;20030;-92
2022/04/12 10:51:06;;;;;;;2.72;1.20;;;;;;;25.14;32.34;97942.28;4967648;29;20373;-92
2022/04/12 10:53:37;;;;;;;1.83;0.90;;;;;;;24.83;32.19;97937.91;4968186;29;20023;-91
2022/04/12 10:56:11;;;;;;;2.45;0.90;;;;;;;24.69;33.42;97934.72;4967578;29;20027;-91
2022/04/12 10:58:38;;;;;;;2.05;1.13;;;;;;;24.79;33.62;97930.22;4967524;28;20034;-91
2022/04/12 11:01:05;;;;;;;1.73;0.77;;;;;;;24.74;29.96;97944.09;4968959;29;20047;-92
2022/04/12 11:03:45;;;;;;;0.75;0.60;;;;;;;24.83;33.74;97927.13;4967398;29;20023;-92
2022/04/12 11:06:12;;;;;;;2.13;0.80;;;;;;;24.74;31.76;97921.72;4967621;29;20062;-91
2022/04/12 11:08:37;;;;;;;2.95;0.80;;;;;;;24.85;32.02;97930.56;4968393;29;20071;-92
2022/04/12 11:11:04;;;;;;;1.70;1.02;;;;;;;24.88;31.55;97930.28;4967313;29;20246;-92
2022/04/12 11:13:34;;;;;;;2.78;1.00;;;;;;;25.07;30.61;97924.97;4967485;29;20027;-91
2022/04/12 11:16:09;;;;;;;2.92;0.90;;;;;;;24.72;31.39;97924.53;4967286;29;20086;-91
2022/04/12 11:18:51;;;;;;;1.55;0.90;;;;;;;24.90;33.78;97922.06;4967182;29;20303;-92
2022/04/12 11:21:19;;;;;;;2.85;0.90;;;;;;;24.68;32.57;97928.47;4967075;29;20318;-91
2022/04/12 11:23:51;;;;;;;1.23;0.80;;;;;;;24.61;33.18;97921.03;4967292;29;20331;-91
2022/04/12 11:26:38;;;;;;;1.40;0.88;;;;;;;24.56;31.98;97913.38;4967134;29;20342;-91
2022/04/12 11:29:15;;;;;;;3.80;0.75;;;;;;;24.32;30.71;97914.63;4967404;29;20019;-92
2022/04/12 11:31:42;;;;;;;1.33;0.80;;;;;;;24.13;30.72;97914.47;4966941;29;20053;-91
2022/04/12 11:34:08;;;;;;;2.30;0.70;;;;;;;23.84;32.07;97922.31;4966813;29;20023;-91
2022/04/12 11:36:36;;;;;;;1.88;0.82;;;;;;;24.13;33.56;97926.09;4967268;29;20023;-92
2022/04/12 11:39:02;;;;;;;1.85;0.93;;;;;;;23.82;33.69;97916.19;4966956;29;20309;-91
2022/04/12 11:41:29;;;;;;;0.93;0.82;;;;;;;23.83;32.86;97912.53;4966896;29;20030;-91